sensor_id;sensor_type;location;lat;lon;timestamp;temperature;humidity
2389;DHT22;1205;47.984;7.668;2023-08-06T00:02:24;17.60;99.90
2389;DHT22;1205;47.984;7.668;2023-08-06T00:04:50;17.70;99.90
2389;DHT22;1205;47.984;7.668;2023-08-06T00:07:15;17.60;99.90
2389;DHT22;1205;47.984;7.668;2023-08-06T00:09:41;17.60;99.90
2389;DHT22;1205;47.984;7.668;2023-08-06T00:12:07;17.60;99.90
2389;DHT22;1205;47.984;7.668;2023-08-06T00:14:32;17.50;99.90
2389;DHT22;1205;47.984;7.668;2023-08-06T00:16:58;17.40;99.90
2389;DHT22;1205;47.984;7.668;2023-08-06T00:19:24;17.50;99.90
2389;DHT22;1205;47.984;7.668;2023-08-06T00:21:49;17.50;99.90
2389;DHT22;1205;47.984;7.668;2023-08-06T00:24:15;17.60;99.90
2389;DHT22;1205;47.984;7.668;2023-08-06T00:26:40;17.50;99.90
2389;DHT22;1205;47.984;7.668;2023-08-06T00:29:06;17.50;99.90
2389;DHT22;1205;47.984;7.668;2023-08-06T00:31:31;17.60;99.90
2389;DHT22;1205;47.984;7.668;2023-08-06T00:33:57;17.50;99.90
2389;DHT22;1205;47.984;7.668;2023-08-06T00:36:22;17.60;99.90
2389;DHT22;1205;47.984;7.668;2023-08-06T00:38:48;17.50;99.90
2389;DHT22;1205;47.984;7.668;2023-08-06T00:41:14;17.50;99.90
2389;DHT22;1205;47.984;7.668;2023-08-06T00:43:39;17.40;99.90
2389;DHT22;1205;47.984;7.668;2023-08-06T00:46:05;17.30;99.90
2389;DHT22;1205;47.984;7.668;2023-08-06T00:48:31;17.30;99.90
2389;DHT22;1205;47.984;7.668;2023-08-06T00:50:57;17.20;99.90
2389;DHT22;1205;47.984;7.668;2023-08-06T00:53:23;17.10;99.90
2389;DHT22;1205;47.984;7.668;2023-08-06T00:55:48;17.00;99.90
2389;DHT22;1205;47.984;7.668;2023-08-06T00:58:14;17.20;99.90
2389;DHT22;1205;47.984;7.668;2023-08-06T01:00:41;17.20;99.90
2389;DHT22;1205;47.984;7.668;2023-08-06T01:03:06;17.20;99.90
2389;DHT22;1205;47.984;7.668;2023-08-06T01:05:32;17.20;99.90
2389;DHT22;1205;47.984;7.668;2023-08-06T01:11:31;17.20;99.90
2389;DHT22;1205;47.984;7.668;2023-08-06T01:13:46;17.20;99.90
2389;DHT22;1205;47.984;7.668;2023-08-06T01:16:15;17.20;99.90
2389;DHT22;1205;47.984;7.668;2023-08-06T01:18:42;17.30;99.90
2389;DHT22;1205;47.984;7.668;2023-08-06T01:21:18;17.30;99.90
2389;DHT22;1205;47.984;7.668;2023-08-06T01:23:44;17.40;99.90
2389;DHT22;1205;47.984;7.668;2023-08-06T01:26:22;17.40;99.90
2389;DHT22;1205;47.984;7.668;2023-08-06T01:31:26;17.50;99.90
2389;DHT22;1205;47.984;7.668;2023-08-06T01:33:53;17.50;99.90
2389;DHT22;1205;47.984;7.668;2023-08-06T01:36:20;17.50;99.90
2389;DHT22;1205;47.984;7.668;2023-08-06T01:38:45;17.50;99.90
2389;DHT22;1205;47.984;7.668;2023-08-06T01:41:11;17.50;99.90
2389;DHT22;1205;47.984;7.668;2023-08-06T01:43:37;17.50;99.90
2389;DHT22;1205;47.984;7.668;2023-08-06T01:46:02;17.50;99.90
2389;DHT22;1205;47.984;7.668;2023-08-06T01:48:28;17.60;99.90
2389;DHT22;1205;47.984;7.668;2023-08-06T01:50:54;17.50;99.90
2389;DHT22;1205;47.984;7.668;2023-08-06T01:53:19;17.50;99.90
2389;DHT22;1205;47.984;7.668;2023-08-06T01:55:49;17.60;99.90
2389;DHT22;1205;47.984;7.668;2023-08-06T01:58:14;17.50;99.90
2389;DHT22;1205;47.984;7.668;2023-08-06T02:00:40;17.50;99.90
2389;DHT22;1205;47.984;7.668;2023-08-06T02:03:06;17.50;99.90
2389;DHT22;1205;47.984;7.668;2023-08-06T02:05:31;17.50;99.90
2389;DHT22;1205;47.984;7.668;2023-08-06T02:07:57;17.40;99.90
2389;DHT22;1205;47.984;7.668;2023-08-06T02:10:23;17.40;99.90
2389;DHT22;1205;47.984;7.668;2023-08-06T02:12:48;17.40;99.90
2389;DHT22;1205;47.984;7.668;2023-08-06T02:15:14;17.40;99.90
2389;DHT22;1205;47.984;7.668;2023-08-06T02:17:39;17.30;99.90
2389;DHT22;1205;47.984;7.668;2023-08-06T02:20:05;17.30;99.90
2389;DHT22;1205;47.984;7.668;2023-08-06T02:22:31;17.20;99.90
2389;DHT22;1205;47.984;7.668;2023-08-06T02:24:57;17.30;99.90
2389;DHT22;1205;47.984;7.668;2023-08-06T02:27:22;17.20;99.90
2389;DHT22;1205;47.984;7.668;2023-08-06T02:29:48;16.90;99.90
2389;DHT22;1205;47.984;7.668;2023-08-06T02:32:13;17.00;99.90
2389;DHT22;1205;47.984;7.668;2023-08-06T02:34:39;16.90;99.90
2389;DHT22;1205;47.984;7.668;2023-08-06T02:37:04;16.90;99.90
2389;DHT22;1205;47.984;7.668;2023-08-06T02:39:30;17.00;99.90
2389;DHT22;1205;47.984;7.668;2023-08-06T02:41:56;17.10;99.90
2389;DHT22;1205;47.984;7.668;2023-08-06T02:44:21;17.10;99.90
2389;DHT22;1205;47.984;7.668;2023-08-06T02:46:47;17.10;99.90
2389;DHT22;1205;47.984;7.668;2023-08-06T02:49:12;17.10;99.90
2389;DHT22;1205;47.984;7.668;2023-08-06T02:51:38;17.20;99.90
2389;DHT22;1205;47.984;7.668;2023-08-06T02:54:03;17.10;99.90
2389;DHT22;1205;47.984;7.668;2023-08-06T02:56:29;17.10;99.90
2389;DHT22;1205;47.984;7.668;2023-08-06T02:58:55;17.10;99.90
2389;DHT22;1205;47.984;7.668;2023-08-06T03:01:20;17.20;99.90
2389;DHT22;1205;47.984;7.668;2023-08-06T03:03:46;17.20;99.90
2389;DHT22;1205;47.984;7.668;2023-08-06T03:06:11;17.20;99.90
2389;DHT22;1205;47.984;7.668;2023-08-06T03:08:37;17.10;99.90
2389;DHT22;1205;47.984;7.668;2023-08-06T03:11:02;17.00;99.90
2389;DHT22;1205;47.984;7.668;2023-08-06T03:13:28;16.90;99.90
2389;DHT22;1205;47.984;7.668;2023-08-06T03:15:55;16.90;99.90
2389;DHT22;1205;47.984;7.668;2023-08-06T03:18:21;16.80;99.90
2389;DHT22;1205;47.984;7.668;2023-08-06T03:20:47;16.70;99.90
2389;DHT22;1205;47.984;7.668;2023-08-06T03:23:12;16.70;99.90
2389;DHT22;1205;47.984;7.668;2023-08-06T03:25:38;16.70;99.90
2389;DHT22;1205;47.984;7.668;2023-08-06T03:28:04;16.70;99.90
2389;DHT22;1205;47.984;7.668;2023-08-06T03:30:29;16.70;99.90
2389;DHT22;1205;47.984;7.668;2023-08-06T03:32:55;16.80;99.90
2389;DHT22;1205;47.984;7.668;2023-08-06T03:35:20;16.70;99.90
2389;DHT22;1205;47.984;7.668;2023-08-06T03:37:46;16.70;99.90
2389;DHT22;1205;47.984;7.668;2023-08-06T03:40:11;16.60;99.90
2389;DHT22;1205;47.984;7.668;2023-08-06T03:42:37;16.50;99.90
2389;DHT22;1205;47.984;7.668;2023-08-06T03:45:03;16.50;99.90
2389;DHT22;1205;47.984;7.668;2023-08-06T03:47:28;16.40;99.90
2389;DHT22;1205;47.984;7.668;2023-08-06T03:49:54;16.10;99.90
2389;DHT22;1205;47.984;7.668;2023-08-06T03:52:19;16.10;99.90
2389;DHT22;1205;47.984;7.668;2023-08-06T03:54:45;15.90;99.90
2389;DHT22;1205;47.984;7.668;2023-08-06T03:57:11;15.90;99.90
2389;DHT22;1205;47.984;7.668;2023-08-06T03:59:36;15.80;99.90
2389;DHT22;1205;47.984;7.668;2023-08-06T04:02:02;15.80;99.90
2389;DHT22;1205;47.984;7.668;2023-08-06T04:04:27;15.80;99.90
2389;DHT22;1205;47.984;7.668;2023-08-06T04:06:53;15.70;99.90
2389;DHT22;1205;47.984;7.668;2023-08-06T04:09:19;15.70;99.90
2389;DHT22;1205;47.984;7.668;2023-08-06T04:11:44;15.70;99.90
2389;DHT22;1205;47.984;7.668;2023-08-06T04:14:10;15.80;99.90
2389;DHT22;1205;47.984;7.668;2023-08-06T04:16:35;15.70;99.90
2389;DHT22;1205;47.984;7.668;2023-08-06T04:19:01;15.80;99.90
2389;DHT22;1205;47.984;7.668;2023-08-06T04:21:26;16.00;99.90
2389;DHT22;1205;47.984;7.668;2023-08-06T04:23:52;15.80;99.90
2389;DHT22;1205;47.984;7.668;2023-08-06T04:26:17;15.80;99.90
2389;DHT22;1205;47.984;7.668;2023-08-06T04:28:43;15.80;99.90
2389;DHT22;1205;47.984;7.668;2023-08-06T04:31:09;15.90;99.90
2389;DHT22;1205;47.984;7.668;2023-08-06T04:33:34;15.90;99.90
2389;DHT22;1205;47.984;7.668;2023-08-06T04:36:00;16.00;99.90
2389;DHT22;1205;47.984;7.668;2023-08-06T04:38:25;16.10;99.90
2389;DHT22;1205;47.984;7.668;2023-08-06T04:40:52;15.90;99.90
2389;DHT22;1205;47.984;7.668;2023-08-06T04:43:17;15.90;99.90
2389;DHT22;1205;47.984;7.668;2023-08-06T04:45:50;15.90;99.90
2389;DHT22;1205;47.984;7.668;2023-08-06T04:48:16;15.80;99.90
2389;DHT22;1205;47.984;7.668;2023-08-06T04:50:45;15.80;99.90
2389;DHT22;1205;47.984;7.668;2023-08-06T04:53:11;15.70;99.90
2389;DHT22;1205;47.984;7.668;2023-08-06T04:55:37;15.70;99.90
2389;DHT22;1205;47.984;7.668;2023-08-06T04:58:02;15.70;99.90
2389;DHT22;1205;47.984;7.668;2023-08-06T05:00:28;15.60;99.90
2389;DHT22;1205;47.984;7.668;2023-08-06T05:02:54;15.40;99.90
2389;DHT22;1205;47.984;7.668;2023-08-06T05:05:19;15.40;99.90
2389;DHT22;1205;47.984;7.668;2023-08-06T05:07:48;15.40;99.90
2389;DHT22;1205;47.984;7.668;2023-08-06T05:10:13;15.20;99.90
2389;DHT22;1205;47.984;7.668;2023-08-06T05:12:39;15.40;99.90
2389;DHT22;1205;47.984;7.668;2023-08-06T05:15:05;15.30;99.90
2389;DHT22;1205;47.984;7.668;2023-08-06T05:17:30;15.40;99.90
2389;DHT22;1205;47.984;7.668;2023-08-06T05:19:56;15.30;99.90
2389;DHT22;1205;47.984;7.668;2023-08-06T05:22:22;15.40;99.90
2389;DHT22;1205;47.984;7.668;2023-08-06T05:24:47;15.50;99.90
2389;DHT22;1205;47.984;7.668;2023-08-06T05:27:13;15.50;99.90
2389;DHT22;1205;47.984;7.668;2023-08-06T05:29:39;15.50;99.90
2389;DHT22;1205;47.984;7.668;2023-08-06T05:32:04;15.60;99.90
2389;DHT22;1205;47.984;7.668;2023-08-06T05:34:30;15.60;99.90
2389;DHT22;1205;47.984;7.668;2023-08-06T05:36:55;15.60;99.90
2389;DHT22;1205;47.984;7.668;2023-08-06T05:39:21;15.60;99.90
2389;DHT22;1205;47.984;7.668;2023-08-06T05:41:46;15.40;99.90
2389;DHT22;1205;47.984;7.668;2023-08-06T05:44:12;15.50;99.90
2389;DHT22;1205;47.984;7.668;2023-08-06T05:46:37;15.50;99.90
2389;DHT22;1205;47.984;7.668;2023-08-06T05:49:03;15.50;99.90
2389;DHT22;1205;47.984;7.668;2023-08-06T05:51:30;15.60;99.90
2389;DHT22;1205;47.984;7.668;2023-08-06T05:53:56;15.70;99.90
2389;DHT22;1205;47.984;7.668;2023-08-06T05:56:21;15.70;99.90
2389;DHT22;1205;47.984;7.668;2023-08-06T05:58:47;15.70;99.90
2389;DHT22;1205;47.984;7.668;2023-08-06T06:01:13;15.70;99.90
2389;DHT22;1205;47.984;7.668;2023-08-06T06:03:38;15.70;99.90
2389;DHT22;1205;47.984;7.668;2023-08-06T06:06:04;15.80;99.90
2389;DHT22;1205;47.984;7.668;2023-08-06T06:08:29;15.80;99.90
2389;DHT22;1205;47.984;7.668;2023-08-06T06:10:55;15.90;99.90
2389;DHT22;1205;47.984;7.668;2023-08-06T06:13:21;15.90;99.90
2389;DHT22;1205;47.984;7.668;2023-08-06T06:15:47;15.80;99.90
2389;DHT22;1205;47.984;7.668;2023-08-06T06:18:13;15.80;99.90
2389;DHT22;1205;47.984;7.668;2023-08-06T06:20:38;15.80;99.90
2389;DHT22;1205;47.984;7.668;2023-08-06T06:23:04;15.90;99.90
2389;DHT22;1205;47.984;7.668;2023-08-06T06:25:30;15.90;99.90
2389;DHT22;1205;47.984;7.668;2023-08-06T06:27:55;15.80;99.90
2389;DHT22;1205;47.984;7.668;2023-08-06T06:30:21;15.80;99.90
2389;DHT22;1205;47.984;7.668;2023-08-06T06:32:47;15.90;99.90
2389;DHT22;1205;47.984;7.668;2023-08-06T06:35:12;15.80;99.90
2389;DHT22;1205;47.984;7.668;2023-08-06T06:37:38;15.60;99.90
2389;DHT22;1205;47.984;7.668;2023-08-06T06:40:04;15.70;99.90
2389;DHT22;1205;47.984;7.668;2023-08-06T06:42:30;15.60;99.90
2389;DHT22;1205;47.984;7.668;2023-08-06T06:44:55;15.80;99.90
2389;DHT22;1205;47.984;7.668;2023-08-06T06:47:21;15.80;99.90
2389;DHT22;1205;47.984;7.668;2023-08-06T06:49:46;15.70;99.90
2389;DHT22;1205;47.984;7.668;2023-08-06T06:52:12;15.90;99.90
2389;DHT22;1205;47.984;7.668;2023-08-06T06:54:37;15.80;99.90
2389;DHT22;1205;47.984;7.668;2023-08-06T06:57:03;15.90;99.90
2389;DHT22;1205;47.984;7.668;2023-08-06T06:59:29;16.00;99.90
2389;DHT22;1205;47.984;7.668;2023-08-06T07:01:55;16.00;99.90
2389;DHT22;1205;47.984;7.668;2023-08-06T07:04:21;16.10;99.90
2389;DHT22;1205;47.984;7.668;2023-08-06T07:06:47;15.90;99.90
2389;DHT22;1205;47.984;7.668;2023-08-06T07:09:13;15.90;99.90
2389;DHT22;1205;47.984;7.668;2023-08-06T07:11:38;16.00;99.90
2389;DHT22;1205;47.984;7.668;2023-08-06T07:14:04;16.10;99.90
2389;DHT22;1205;47.984;7.668;2023-08-06T07:16:29;16.10;99.90
2389;DHT22;1205;47.984;7.668;2023-08-06T07:18:55;16.40;99.90
2389;DHT22;1205;47.984;7.668;2023-08-06T07:21:21;16.60;99.90
2389;DHT22;1205;47.984;7.668;2023-08-06T07:23:47;16.60;99.90
2389;DHT22;1205;47.984;7.668;2023-08-06T07:26:15;16.90;99.90
2389;DHT22;1205;47.984;7.668;2023-08-06T07:28:40;16.90;99.90
2389;DHT22;1205;47.984;7.668;2023-08-06T07:31:06;16.90;99.90
2389;DHT22;1205;47.984;7.668;2023-08-06T07:33:31;17.10;99.90
2389;DHT22;1205;47.984;7.668;2023-08-06T07:35:57;17.40;99.90
2389;DHT22;1205;47.984;7.668;2023-08-06T07:38:22;17.50;99.90
2389;DHT22;1205;47.984;7.668;2023-08-06T07:40:48;17.50;99.90
2389;DHT22;1205;47.984;7.668;2023-08-06T07:43:14;17.30;99.90
2389;DHT22;1205;47.984;7.668;2023-08-06T07:45:39;17.10;99.90
2389;DHT22;1205;47.984;7.668;2023-08-06T07:48:05;17.50;99.90
2389;DHT22;1205;47.984;7.668;2023-08-06T07:50:30;17.50;99.90
2389;DHT22;1205;47.984;7.668;2023-08-06T07:52:56;17.30;99.90
2389;DHT22;1205;47.984;7.668;2023-08-06T07:55:22;17.20;99.90
2389;DHT22;1205;47.984;7.668;2023-08-06T07:57:47;16.70;99.90
2389;DHT22;1205;47.984;7.668;2023-08-06T08:00:13;17.00;99.90
2389;DHT22;1205;47.984;7.668;2023-08-06T08:02:38;16.90;99.90
2389;DHT22;1205;47.984;7.668;2023-08-06T08:05:04;16.70;99.90
2389;DHT22;1205;47.984;7.668;2023-08-06T08:07:32;16.70;99.90
2389;DHT22;1205;47.984;7.668;2023-08-06T08:09:58;16.70;99.90
2389;DHT22;1205;47.984;7.668;2023-08-06T08:12:23;16.80;99.90
2389;DHT22;1205;47.984;7.668;2023-08-06T08:14:49;16.90;99.90
2389;DHT22;1205;47.984;7.668;2023-08-06T08:17:14;16.70;99.90
2389;DHT22;1205;47.984;7.668;2023-08-06T08:19:40;16.70;99.90
2389;DHT22;1205;47.984;7.668;2023-08-06T08:22:06;16.70;99.90
2389;DHT22;1205;47.984;7.668;2023-08-06T08:24:32;16.80;99.90
2389;DHT22;1205;47.984;7.668;2023-08-06T08:26:57;16.80;99.90
2389;DHT22;1205;47.984;7.668;2023-08-06T08:29:23;16.60;99.90
2389;DHT22;1205;47.984;7.668;2023-08-06T08:31:49;16.60;99.90
2389;DHT22;1205;47.984;7.668;2023-08-06T08:34:16;16.80;99.90
2389;DHT22;1205;47.984;7.668;2023-08-06T08:36:42;16.80;99.90
2389;DHT22;1205;47.984;7.668;2023-08-06T08:39:08;17.00;99.90
2389;DHT22;1205;47.984;7.668;2023-08-06T08:41:37;17.00;99.90
2389;DHT22;1205;47.984;7.668;2023-08-06T08:44:04;17.00;99.90
2389;DHT22;1205;47.984;7.668;2023-08-06T08:46:33;17.20;99.90
2389;DHT22;1205;47.984;7.668;2023-08-06T08:48:59;17.30;99.90
2389;DHT22;1205;47.984;7.668;2023-08-06T08:51:27;17.30;99.90
2389;DHT22;1205;47.984;7.668;2023-08-06T08:53:53;17.00;99.90
2389;DHT22;1205;47.984;7.668;2023-08-06T08:56:23;17.20;99.90
2389;DHT22;1205;47.984;7.668;2023-08-06T08:58:49;17.30;99.90
2389;DHT22;1205;47.984;7.668;2023-08-06T09:01:15;17.20;99.90
2389;DHT22;1205;47.984;7.668;2023-08-06T09:03:43;17.00;99.90
2389;DHT22;1205;47.984;7.668;2023-08-06T09:06:10;16.80;99.90
2389;DHT22;1205;47.984;7.668;2023-08-06T09:08:40;16.80;99.90
2389;DHT22;1205;47.984;7.668;2023-08-06T09:11:09;16.90;99.90
2389;DHT22;1205;47.984;7.668;2023-08-06T09:13:38;16.90;99.90
2389;DHT22;1205;47.984;7.668;2023-08-06T09:16:04;16.70;99.90
2389;DHT22;1205;47.984;7.668;2023-08-06T09:18:30;16.80;99.90
2389;DHT22;1205;47.984;7.668;2023-08-06T09:20:57;16.80;99.90
2389;DHT22;1205;47.984;7.668;2023-08-06T09:23:28;16.90;99.90
2389;DHT22;1205;47.984;7.668;2023-08-06T09:25:55;16.50;99.90
2389;DHT22;1205;47.984;7.668;2023-08-06T09:28:20;16.60;99.90
2389;DHT22;1205;47.984;7.668;2023-08-06T09:30:47;16.50;99.90
2389;DHT22;1205;47.984;7.668;2023-08-06T09:33:18;16.60;99.90
2389;DHT22;1205;47.984;7.668;2023-08-06T09:35:45;16.90;99.90
2389;DHT22;1205;47.984;7.668;2023-08-06T09:38:11;16.90;99.90
2389;DHT22;1205;47.984;7.668;2023-08-06T09:40:37;17.10;99.90
2389;DHT22;1205;47.984;7.668;2023-08-06T09:43:03;17.10;99.90
2389;DHT22;1205;47.984;7.668;2023-08-06T09:45:34;17.10;99.90
2389;DHT22;1205;47.984;7.668;2023-08-06T09:48:04;17.20;99.90
2389;DHT22;1205;47.984;7.668;2023-08-06T09:50:31;17.10;99.90
2389;DHT22;1205;47.984;7.668;2023-08-06T09:52:58;17.30;99.90
2389;DHT22;1205;47.984;7.668;2023-08-06T09:55:25;17.50;99.90
2389;DHT22;1205;47.984;7.668;2023-08-06T09:57:52;17.40;99.90
2389;DHT22;1205;47.984;7.668;2023-08-06T10:00:18;17.30;99.90
2389;DHT22;1205;47.984;7.668;2023-08-06T10:02:45;17.30;99.90
2389;DHT22;1205;47.984;7.668;2023-08-06T10:05:11;17.30;99.90
2389;DHT22;1205;47.984;7.668;2023-08-06T10:07:36;17.60;99.90
2389;DHT22;1205;47.984;7.668;2023-08-06T10:10:05;17.70;99.90
2389;DHT22;1205;47.984;7.668;2023-08-06T10:12:34;17.50;99.90
2389;DHT22;1205;47.984;7.668;2023-08-06T10:15:04;17.20;99.90
2389;DHT22;1205;47.984;7.668;2023-08-06T10:17:32;17.20;99.90
2389;DHT22;1205;47.984;7.668;2023-08-06T10:19:59;17.40;99.90
2389;DHT22;1205;47.984;7.668;2023-08-06T10:22:25;17.30;99.90
2389;DHT22;1205;47.984;7.668;2023-08-06T10:24:57;17.30;99.90
2389;DHT22;1205;47.984;7.668;2023-08-06T10:33:04;17.30;99.90
2389;DHT22;1205;47.984;7.668;2023-08-06T10:35:42;17.20;99.90
2389;DHT22;1205;47.984;7.668;2023-08-06T10:38:17;17.10;99.90
2389;DHT22;1205;47.984;7.668;2023-08-06T10:43:32;17.00;99.90
2389;DHT22;1205;47.984;7.668;2023-08-06T10:46:01;17.00;99.90
2389;DHT22;1205;47.984;7.668;2023-08-06T10:48:37;16.90;99.90
2389;DHT22;1205;47.984;7.668;2023-08-06T10:51:07;16.90;99.90
2389;DHT22;1205;47.984;7.668;2023-08-06T10:53:32;16.80;99.90
2389;DHT22;1205;47.984;7.668;2023-08-06T10:55:58;16.70;99.90
2389;DHT22;1205;47.984;7.668;2023-08-06T10:58:24;16.70;99.90
2389;DHT22;1205;47.984;7.668;2023-08-06T11:00:49;16.80;99.90
2389;DHT22;1205;47.984;7.668;2023-08-06T11:03:15;16.60;99.90
2389;DHT22;1205;47.984;7.668;2023-08-06T11:05:40;16.60;99.90
2389;DHT22;1205;47.984;7.668;2023-08-06T11:08:06;16.60;99.90
2389;DHT22;1205;47.984;7.668;2023-08-06T11:10:35;16.60;99.90
2389;DHT22;1205;47.984;7.668;2023-08-06T11:13:02;16.80;99.90
2389;DHT22;1205;47.984;7.668;2023-08-06T11:15:29;16.90;99.90
2389;DHT22;1205;47.984;7.668;2023-08-06T11:17:55;17.00;99.90
2389;DHT22;1205;47.984;7.668;2023-08-06T11:20:20;17.10;99.90
2389;DHT22;1205;47.984;7.668;2023-08-06T11:22:47;16.90;99.90
2389;DHT22;1205;47.984;7.668;2023-08-06T11:25:13;17.10;99.90
2389;DHT22;1205;47.984;7.668;2023-08-06T11:27:39;17.20;99.90
2389;DHT22;1205;47.984;7.668;2023-08-06T11:30:05;17.20;99.90
2389;DHT22;1205;47.984;7.668;2023-08-06T11:32:31;17.10;99.90
2389;DHT22;1205;47.984;7.668;2023-08-06T11:34:58;17.40;99.90
2389;DHT22;1205;47.984;7.668;2023-08-06T11:37:24;17.40;99.90
2389;DHT22;1205;47.984;7.668;2023-08-06T11:39:50;17.10;99.90
2389;DHT22;1205;47.984;7.668;2023-08-06T11:42:16;17.20;99.90
2389;DHT22;1205;47.984;7.668;2023-08-06T11:44:42;17.40;99.90
2389;DHT22;1205;47.984;7.668;2023-08-06T11:47:14;17.40;99.90
2389;DHT22;1205;47.984;7.668;2023-08-06T11:49:48;17.30;99.90
2389;DHT22;1205;47.984;7.668;2023-08-06T11:54:44;16.90;99.90
2389;DHT22;1205;47.984;7.668;2023-08-06T11:57:11;16.80;99.90
2389;DHT22;1205;47.984;7.668;2023-08-06T11:59:38;17.10;99.90
2389;DHT22;1205;47.984;7.668;2023-08-06T12:02:05;17.20;99.90
2389;DHT22;1205;47.984;7.668;2023-08-06T12:04:31;17.50;99.90
2389;DHT22;1205;47.984;7.668;2023-08-06T12:07:07;17.50;99.90
2389;DHT22;1205;47.984;7.668;2023-08-06T12:09:35;17.70;99.90
2389;DHT22;1205;47.984;7.668;2023-08-06T12:12:01;18.00;99.90
2389;DHT22;1205;47.984;7.668;2023-08-06T12:14:27;18.00;99.90
2389;DHT22;1205;47.984;7.668;2023-08-06T12:16:52;18.20;99.90
2389;DHT22;1205;47.984;7.668;2023-08-06T12:19:18;18.20;99.90
2389;DHT22;1205;47.984;7.668;2023-08-06T12:21:43;18.40;99.90
2389;DHT22;1205;47.984;7.668;2023-08-06T12:24:09;18.40;99.90
2389;DHT22;1205;47.984;7.668;2023-08-06T12:26:35;18.20;99.90
2389;DHT22;1205;47.984;7.668;2023-08-06T12:29:01;18.00;99.90
2389;DHT22;1205;47.984;7.668;2023-08-06T12:31:26;17.90;99.90
2389;DHT22;1205;47.984;7.668;2023-08-06T12:33:52;18.00;99.90
2389;DHT22;1205;47.984;7.668;2023-08-06T12:36:18;18.00;99.90
2389;DHT22;1205;47.984;7.668;2023-08-06T12:38:43;17.70;99.90
2389;DHT22;1205;47.984;7.668;2023-08-06T12:41:09;17.20;99.90
2389;DHT22;1205;47.984;7.668;2023-08-06T12:43:34;16.90;99.90
2389;DHT22;1205;47.984;7.668;2023-08-06T12:46:00;17.00;99.90
2389;DHT22;1205;47.984;7.668;2023-08-06T12:48:25;17.20;99.90
2389;DHT22;1205;47.984;7.668;2023-08-06T12:50:51;17.60;99.90
2389;DHT22;1205;47.984;7.668;2023-08-06T12:53:16;17.90;99.90
2389;DHT22;1205;47.984;7.668;2023-08-06T12:55:42;17.90;99.90
2389;DHT22;1205;47.984;7.668;2023-08-06T12:58:08;17.90;99.90
2389;DHT22;1205;47.984;7.668;2023-08-06T13:00:34;18.00;99.90
2389;DHT22;1205;47.984;7.668;2023-08-06T13:02:59;18.20;99.90
2389;DHT22;1205;47.984;7.668;2023-08-06T13:05:25;18.20;99.90
2389;DHT22;1205;47.984;7.668;2023-08-06T13:07:50;18.30;99.90
2389;DHT22;1205;47.984;7.668;2023-08-06T13:10:16;18.50;99.90
2389;DHT22;1205;47.984;7.668;2023-08-06T13:12:41;18.50;99.90
2389;DHT22;1205;47.984;7.668;2023-08-06T13:15:07;18.50;99.90
2389;DHT22;1205;47.984;7.668;2023-08-06T13:17:33;18.70;99.90
2389;DHT22;1205;47.984;7.668;2023-08-06T13:19:59;18.80;99.90
2389;DHT22;1205;47.984;7.668;2023-08-06T13:22:24;18.70;99.90
2389;DHT22;1205;47.984;7.668;2023-08-06T13:24:50;18.80;99.20
2389;DHT22;1205;47.984;7.668;2023-08-06T13:27:16;18.80;98.90
2389;DHT22;1205;47.984;7.668;2023-08-06T13:29:41;18.70;99.40
2389;DHT22;1205;47.984;7.668;2023-08-06T13:32:07;18.70;99.70
2389;DHT22;1205;47.984;7.668;2023-08-06T13:34:32;18.80;99.90
2389;DHT22;1205;47.984;7.668;2023-08-06T13:36:58;18.80;99.90
2389;DHT22;1205;47.984;7.668;2023-08-06T13:39:23;18.90;99.90
2389;DHT22;1205;47.984;7.668;2023-08-06T13:41:49;19.00;99.90
2389;DHT22;1205;47.984;7.668;2023-08-06T13:44:14;19.10;99.50
2389;DHT22;1205;47.984;7.668;2023-08-06T13:46:41;18.80;98.80
2389;DHT22;1205;47.984;7.668;2023-08-06T13:49:06;18.60;98.80
2389;DHT22;1205;47.984;7.668;2023-08-06T13:51:32;18.20;99.00
2389;DHT22;1205;47.984;7.668;2023-08-06T13:53:59;18.10;99.70
2389;DHT22;1205;47.984;7.668;2023-08-06T13:56:25;17.90;99.90
2389;DHT22;1205;47.984;7.668;2023-08-06T13:58:50;17.60;99.90
2389;DHT22;1205;47.984;7.668;2023-08-06T14:01:17;17.70;99.90
2389;DHT22;1205;47.984;7.668;2023-08-06T14:03:44;17.80;99.90
2389;DHT22;1205;47.984;7.668;2023-08-06T14:06:10;17.90;99.90
2389;DHT22;1205;47.984;7.668;2023-08-06T14:08:35;17.90;99.90
2389;DHT22;1205;47.984;7.668;2023-08-06T14:11:01;17.80;99.90
2389;DHT22;1205;47.984;7.668;2023-08-06T14:13:26;17.60;99.90
2389;DHT22;1205;47.984;7.668;2023-08-06T14:15:52;17.60;99.90
2389;DHT22;1205;47.984;7.668;2023-08-06T14:18:18;17.30;99.90
2389;DHT22;1205;47.984;7.668;2023-08-06T14:20:44;17.20;99.90
2389;DHT22;1205;47.984;7.668;2023-08-06T14:23:09;17.40;99.90
2389;DHT22;1205;47.984;7.668;2023-08-06T14:25:35;17.40;99.90
2389;DHT22;1205;47.984;7.668;2023-08-06T14:28:01;17.40;99.90
2389;DHT22;1205;47.984;7.668;2023-08-06T14:30:27;17.40;99.90
2389;DHT22;1205;47.984;7.668;2023-08-06T14:32:52;17.60;99.90
2389;DHT22;1205;47.984;7.668;2023-08-06T14:35:18;17.70;99.90
2389;DHT22;1205;47.984;7.668;2023-08-06T14:37:43;17.80;99.90
2389;DHT22;1205;47.984;7.668;2023-08-06T14:40:11;18.00;99.90
2389;DHT22;1205;47.984;7.668;2023-08-06T14:42:37;18.10;99.90
2389;DHT22;1205;47.984;7.668;2023-08-06T14:45:03;18.20;99.90
2389;DHT22;1205;47.984;7.668;2023-08-06T14:47:29;18.10;99.90
2389;DHT22;1205;47.984;7.668;2023-08-06T14:49:54;18.10;99.90
2389;DHT22;1205;47.984;7.668;2023-08-06T14:52:20;18.10;99.90
2389;DHT22;1205;47.984;7.668;2023-08-06T14:54:45;18.30;99.90
2389;DHT22;1205;47.984;7.668;2023-08-06T14:57:12;18.20;99.50
2389;DHT22;1205;47.984;7.668;2023-08-06T14:59:39;18.20;99.70
2389;DHT22;1205;47.984;7.668;2023-08-06T15:02:05;18.10;99.10
2389;DHT22;1205;47.984;7.668;2023-08-06T15:04:31;18.00;98.60
2389;DHT22;1205;47.984;7.668;2023-08-06T15:06:57;18.20;98.90
2389;DHT22;1205;47.984;7.668;2023-08-06T15:09:22;18.30;99.00
2389;DHT22;1205;47.984;7.668;2023-08-06T15:11:48;18.30;98.70
2389;DHT22;1205;47.984;7.668;2023-08-06T15:14:14;17.90;99.30
2389;DHT22;1205;47.984;7.668;2023-08-06T15:16:40;18.10;99.90
2389;DHT22;1205;47.984;7.668;2023-08-06T15:19:06;18.20;99.90
2389;DHT22;1205;47.984;7.668;2023-08-06T15:21:31;18.40;98.80
2389;DHT22;1205;47.984;7.668;2023-08-06T15:23:57;18.60;99.60
2389;DHT22;1205;47.984;7.668;2023-08-06T15:26:23;18.70;98.40
2389;DHT22;1205;47.984;7.668;2023-08-06T15:28:48;18.60;97.80
2389;DHT22;1205;47.984;7.668;2023-08-06T15:31:14;18.60;97.80
2389;DHT22;1205;47.984;7.668;2023-08-06T15:33:39;18.80;98.30
2389;DHT22;1205;47.984;7.668;2023-08-06T15:36:05;19.10;98.40
2389;DHT22;1205;47.984;7.668;2023-08-06T15:38:31;19.30;98.10
2389;DHT22;1205;47.984;7.668;2023-08-06T15:40:57;19.30;97.30
2389;DHT22;1205;47.984;7.668;2023-08-06T15:43:22;19.30;96.30
2389;DHT22;1205;47.984;7.668;2023-08-06T15:45:48;19.10;96.10
2389;DHT22;1205;47.984;7.668;2023-08-06T15:48:13;19.10;96.50
2389;DHT22;1205;47.984;7.668;2023-08-06T15:50:39;19.00;96.20
2389;DHT22;1205;47.984;7.668;2023-08-06T15:53:05;19.10;96.10
2389;DHT22;1205;47.984;7.668;2023-08-06T15:55:31;19.10;96.20
2389;DHT22;1205;47.984;7.668;2023-08-06T15:57:59;19.30;96.70
2389;DHT22;1205;47.984;7.668;2023-08-06T16:00:24;19.20;95.40
2389;DHT22;1205;47.984;7.668;2023-08-06T16:02:50;19.20;94.90
2389;DHT22;1205;47.984;7.668;2023-08-06T16:05:15;19.50;95.00
2389;DHT22;1205;47.984;7.668;2023-08-06T16:07:41;19.40;95.20
2389;DHT22;1205;47.984;7.668;2023-08-06T16:10:07;19.50;95.70
2389;DHT22;1205;47.984;7.668;2023-08-06T16:12:32;19.30;94.70